Catskill, New York
Current Conditions -  °F | °C
As of 7:54 PM on Saturday 25 Oct 2014 (Local Time) from KPSF Reporting Station
Clear Clear  
Wind Chill: 52°   Ceiling: Unl
Heat Index: 52°   Visibility: 10mi
Dew Point: 41°   Wind: 0mph
Humidity: 66%   Direction: NA
Pressure: 29.55"   Gusts: NA
Location:  42.22°N, 73.86°W
Report Text: KPSF 252354Z AUTO 00000KT 10SM CLR 11/05 A2955 RMK AO2 SLP001 T01110050 10150 20111 58016
Loading
Personal Weather Stations






























Interactive Weather Map
Tropical Storm Tracking
New forecast layout! Learn more

10-Day Weather Forecast

Advertisements
Track Severe Weather on mobile